Time;durP1;ratioP1;P1;durP2;ratioP2;P2;SDS_P1;SDS_P2;PMS_P1;PMS_P2;Temp;Humidity;BMP_temperature;BMP_pressure;BME280_temperature;BME280_humidity;BME280_pressure;Samples;Min_cycle;Max_cycle;Signal;HPM_P1;HPM_P2
2021/01/30 00:00:30;;;;;;;9.25;5.22;;;0.30;99.90;;;;;;5039308;28;20416;-79
2021/01/30 00:02:56;;;;;;;4.85;3.95;;;0.20;99.90;;;;;;5045683;28;20488;-80
2021/01/30 00:05:23;;;;;;;7.82;4.68;;;0.30;99.90;;;;;;5040404;28;20041;-78
2021/01/30 00:07:49;;;;;;;7.65;4.20;;;0.30;99.90;;;;;;5037597;28;20143;-79
2021/01/30 00:10:17;;;;;;;9.35;4.20;;;0.20;99.90;;;;;;5044623;28;20037;-78
2021/01/30 00:12:43;;;;;;;5.93;3.63;;;0.30;99.90;;;;;;5041848;28;20425;-77
2021/01/30 00:15:11;;;;;;;7.95;4.10;;;0.30;99.90;;;;;;5045559;28;20038;-78
2021/01/30 00:17:37;;;;;;;6.57;3.42;;;0.20;99.90;;;;;;5029534;28;20109;-77
2021/01/30 00:20:05;;;;;;;17.65;4.85;;;0.20;99.90;;;;;;5044235;28;20045;-77
2021/01/30 00:22:31;;;;;;;8.20;3.85;;;0.20;99.90;;;;;;5041258;28;20034;-78
2021/01/30 00:24:57;;;;;;;8.13;4.22;;;0.20;99.90;;;;;;5034569;28;20052;-79
2021/01/30 00:27:23;;;;;;;7.65;3.75;;;0.20;99.90;;;;;;5039235;28;20115;-78
2021/01/30 00:29:49;;;;;;;7.13;3.70;;;0.20;99.90;;;;;;5047880;28;20060;-77
2021/01/30 00:32:18;;;;;;;13.73;4.63;;;0.10;99.90;;;;;;5045827;28;20529;-78
2021/01/30 00:34:45;;;;;;;7.90;3.63;;;0.10;99.90;;;;;;5034555;28;20577;-77
2021/01/30 00:37:19;;;;;;;;;;;0.10;99.90;;;;;;5049299;28;20029;-77
2021/01/30 00:39:45;;;;;;;9.07;4.07;;;0.10;99.90;;;;;;5045198;28;19932;-77
2021/01/30 00:42:14;;;;;;;5.30;3.65;;;0.10;99.90;;;;;;5039604;28;20040;-78
2021/01/30 00:44:40;;;;;;;6.95;3.80;;;0.10;99.90;;;;;;5047471;28;20041;-76
2021/01/30 00:47:07;;;;;;;5.93;3.83;;;0.10;99.90;;;;;;5059586;28;20373;-76
2021/01/30 00:49:33;;;;;;;8.30;3.50;;;0.10;99.90;;;;;;5063958;28;20438;-76
2021/01/30 00:52:00;;;;;;;;;;;0.10;99.90;;;;;;5040483;28;20042;-76
2021/01/30 00:54:26;;;;;;;7.53;3.40;;;0.10;99.90;;;;;;5047849;28;19916;-76
2021/01/30 00:56:54;;;;;;;6.03;3.60;;;0.10;99.90;;;;;;5030395;28;20449;-75
2021/01/30 00:59:21;;;;;;;6.03;3.55;;;0.10;99.90;;;;;;5041181;28;20033;-76
2021/01/30 01:01:52;;;;;;;6.95;3.67;;;0.10;99.90;;;;;;5037590;28;20510;-76
2021/01/30 01:04:20;;;;;;;5.35;3.67;;;0.10;99.90;;;;;;5043854;28;20168;-76
2021/01/30 01:06:46;;;;;;;7.88;4.20;;;0.10;99.90;;;;;;5041651;28;20119;-76
2021/01/30 01:09:13;;;;;;;6.88;4.40;;;0.10;99.90;;;;;;5040344;28;20034;-76
2021/01/30 01:11:45;;;;;;;8.02;3.83;;;0.10;99.90;;;;;;5053423;28;20501;-76
2021/01/30 01:14:14;;;;;;;8.85;4.35;;;0.10;99.90;;;;;;5030294;28;20048;-76
2021/01/30 01:16:40;;;;;;;8.80;3.67;;;0.10;99.90;;;;;;5039349;28;20034;-77
2021/01/30 01:19:07;;;;;;;7.53;4.15;;;0.10;99.90;;;;;;5037503;28;20041;-77
2021/01/30 01:21:34;;;;;;;7.97;4.18;;;0.10;99.90;;;;;;5046526;28;20122;-77
2021/01/30 01:24:01;;;;;;;9.77;4.55;;;0.10;99.90;;;;;;5049272;28;20041;-78
2021/01/30 01:26:27;;;;;;;11.07;4.93;;;0.10;99.90;;;;;;5040602;28;20479;-77
2021/01/30 01:28:54;;;;;;;5.93;4.22;;;0.10;99.90;;;;;;5038019;28;20116;-77
2021/01/30 01:31:20;;;;;;;11.80;4.78;;;0.00;99.90;;;;;;5046160;28;20064;-78
2021/01/30 01:33:46;;;;;;;;;;;0.00;99.90;;;;;;5048791;28;20412;-78
2021/01/30 01:36:14;;;;;;;9.50;5.20;;;-0.10;99.90;;;;;;5038156;28;19941;-77
2021/01/30 01:38:41;;;;;;;8.07;4.82;;;-0.20;99.90;;;;;;5053189;28;20083;-77
2021/01/30 01:41:07;;;;;;;12.13;5.97;;;-0.30;99.90;;;;;;5040449;28;20068;-77
2021/01/30 01:43:34;;;;;;;11.05;5.75;;;-0.30;99.90;;;;;;5038595;28;20428;-78
2021/01/30 01:46:13;;;;;;;16.05;6.15;;;-0.40;99.90;;;;;;5040911;28;20103;-78
2021/01/30 01:49:09;;;;;;;13.35;5.80;;;0.40;99.90;;;;;;5044032;28;20037;-78
2021/01/30 01:51:43;;;;;;;15.88;5.18;;;-0.50;99.90;;;;;;5049480;28;20044;-78
2021/01/30 01:54:14;;;;;;;10.82;5.30;;;-0.60;99.90;;;;;;5039453;28;20071;-77
2021/01/30 01:56:41;;;;;;;12.48;6.40;;;-0.70;99.90;;;;;;5051817;28;20470;-77
2021/01/30 01:59:11;;;;;;;14.55;5.60;;;-0.60;99.90;;;;;;5068226;28;20037;-77
2021/01/30 02:01:37;;;;;;;9.45;5.55;;;-0.60;99.90;;;;;;5041187;28;20462;-76
2021/01/30 02:04:14;;;;;;;11.25;6.00;;;-0.60;99.90;;;;;;5039065;28;20142;-76
2021/01/30 02:06:43;;;;;;;10.68;6.00;;;-0.50;99.90;;;;;;5044336;28;20040;-77
2021/01/30 02:09:12;;;;;;;9.10;5.15;;;-0.50;99.90;;;;;;5049480;28;20045;-77
2021/01/30 02:11:39;;;;;;;9.77;4.82;;;-0.50;99.90;;;;;;5059097;28;20482;-77
2021/01/30 02:14:08;;;;;;;9.88;5.18;;;-0.50;99.90;;;;;;5056068;28;20045;-76
2021/01/30 02:16:54;;;;;;;8.10;5.40;;;-0.50;99.90;;;;;;5050848;28;20047;-77
2021/01/30 02:20:16;;;;;;;12.32;5.90;;;-0.60;99.90;;;;;;5059942;28;20116;-78
2021/01/30 02:23:14;;;;;;;12.48;5.43;;;-0.70;99.90;;;;;;5052140;28;20131;-77
2021/01/30 02:26:01;;;;;;;11.57;6.05;;;-0.80;99.90;;;;;;5042178;28;20390;-78
2021/01/30 02:28:40;;;;;;;13.50;5.82;;;-0.80;99.90;;;;;;5038393;28;20482;-80
2021/01/30 02:31:41;;;;;;;12.23;6.78;;;-0.90;99.90;;;;;;5045816;28;20037;-77
2021/01/30 02:34:35;;;;;;;15.57;6.07;;;-0.90;99.90;;;;;;5044632;28;20041;-77
2021/01/30 02:37:24;;;;;;;12.20;6.90;;;-0.90;99.90;;;;;;5046578;28;20179;-78
2021/01/30 02:40:03;;;;;;;12.52;6.13;;;-1.00;99.90;;;;;;5049171;28;20068;-80
2021/01/30 02:42:33;;;;;;;11.63;6.18;;;-1.00;99.90;;;;;;5057352;28;20083;-77
2021/01/30 02:45:09;;;;;;;11.63;6.40;;;-1.00;99.90;;;;;;5065741;28;20039;-77
2021/01/30 02:47:42;;;;;;;12.75;6.38;;;-1.00;99.90;;;;;;5049206;28;20037;-76
2021/01/30 02:50:14;;;;;;;14.15;6.45;;;-1.10;99.90;;;;;;5041411;28;20459;-77
2021/01/30 02:52:41;;;;;;;12.75;7.00;;;-1.10;99.90;;;;;;5044218;28;20121;-75
2021/01/30 02:55:11;;;;;;;14.00;6.72;;;-1.10;99.90;;;;;;5040959;28;20044;-76
2021/01/30 02:57:42;;;;;;;11.05;5.82;;;-1.20;99.90;;;;;;5065176;28;20358;-78
2021/01/30 03:00:11;;;;;;;11.80;6.38;;;-1.20;99.90;;;;;;5036508;28;20462;-77
2021/01/30 03:02:37;;;;;;;10.88;6.25;;;-1.20;99.90;;;;;;5045308;28;20029;-77
2021/01/30 03:05:07;;;;;;;11.43;6.35;;;-1.20;99.90;;;;;;5056540;28;20120;-76
2021/01/30 03:07:41;;;;;;;11.20;5.97;;;-1.30;99.90;;;;;;5049042;28;20052;-76
2021/01/30 03:10:16;;;;;;;11.38;6.68;;;-1.20;99.90;;;;;;5036129;28;20108;-77
2021/01/30 03:13:04;;;;;;;10.20;5.93;;;-1.30;99.90;;;;;;5042218;28;20036;-76
2021/01/30 03:15:52;;;;;;;10.48;5.65;;;-1.30;99.90;;;;;;5060970;28;20052;-75
2021/01/30 03:18:30;;;;;;;10.60;5.60;;;-1.30;99.90;;;;;;5032367;28;20063;-76
2021/01/30 03:20:55;;;;;;;9.35;5.72;;;-1.30;99.90;;;;;;5049349;28;20098;-77
2021/01/30 03:23:25;;;;;;;10.23;5.60;;;-1.30;99.90;;;;;;5038802;28;20045;-77
2021/01/30 03:25:53;;;;;;;10.18;5.50;;;-1.30;99.90;;;;;;5040587;28;20039;-77
2021/01/30 03:28:19;;;;;;;10.75;5.53;;;-1.30;99.90;;;;;;5050914;28;20493;-76
2021/01/30 03:30:45;;;;;;;9.18;4.95;;;-1.30;99.90;;;;;;5049757;28;20033;-76
2021/01/30 03:33:11;;;;;;;7.85;5.43;;;-1.30;99.90;;;;;;5043405;28;20041;-76
2021/01/30 03:35:38;;;;;;;10.95;5.80;;;-1.30;99.90;;;;;;5050325;28;20424;-76
2021/01/30 03:38:04;;;;;;;9.85;4.68;;;-1.30;99.90;;;;;;5038646;28;20390;-77
2021/01/30 03:40:30;;;;;;;8.40;5.07;;;-1.30;99.90;;;;;;5050784;28;20049;-76
2021/01/30 03:42:56;;;;;;;10.32;5.47;;;-1.30;99.90;;;;;;5060704;28;20033;-78
2021/01/30 03:45:27;;;;;;;9.43;5.47;;;-1.30;99.90;;;;;;5045426;28;20041;-77
2021/01/30 03:47:53;;;;;;;8.15;5.07;;;-1.40;99.90;;;;;;5041086;28;20072;-77
2021/01/30 03:50:19;;;;;;;;;;;-1.40;99.90;;;;;;5047356;28;20308;-78
2021/01/30 03:52:45;;;;;;;8.82;5.05;;;-1.40;99.90;;;;;;5040875;28;19917;-78
2021/01/30 03:55:12;;;;;;;7.32;4.60;;;-1.40;99.90;;;;;;5046103;28;20067;-78
2021/01/30 03:57:38;;;;;;;11.40;5.28;;;-1.50;99.90;;;;;;5044387;28;20037;-77
2021/01/30 04:00:07;;;;;;;10.88;5.03;;;-1.50;99.90;;;;;;5049206;28;20075;-78
2021/01/30 04:02:32;;;;;;;8.75;4.45;;;-1.50;99.90;;;;;;5040485;28;20048;-77
2021/01/30 04:05:05;;;;;;;10.20;4.63;;;-1.50;99.90;;;;;;5037317;28;20103;-78
2021/01/30 04:07:31;;;;;;;10.15;5.63;;;-1.60;99.90;;;;;;5048345;28;20125;-78
2021/01/30 04:09:57;;;;;;;9.77;4.88;;;-1.60;99.90;;;;;;5063656;28;20032;-79
2021/01/30 04:12:23;;;;;;;11.95;5.05;;;-1.60;99.90;;;;;;5039617;28;20086;-79
2021/01/30 04:14:49;;;;;;;11.82;4.93;;;-1.70;99.90;;;;;;5061299;28;20049;-77
2021/01/30 04:17:15;;;;;;;;;;;-1.80;99.90;;;;;;5038582;28;20148;-76
2021/01/30 04:19:40;;;;;;;9.65;4.47;;;-1.80;99.90;;;;;;5047844;28;20094;-77
2021/01/30 04:22:06;;;;;;;9.30;4.65;;;-1.80;99.90;;;;;;5042463;28;20037;-76
2021/01/30 04:24:38;;;;;;;8.35;4.82;;;-1.80;99.90;;;;;;5039972;28;20049;-78
2021/01/30 04:27:05;;;;;;;8.82;5.05;;;-1.90;99.90;;;;;;5043343;28;20059;-76
2021/01/30 04:29:31;;;;;;;6.68;4.43;;;-1.90;99.90;;;;;;5047036;28;20065;-76
2021/01/30 04:31:58;;;;;;;7.53;4.45;;;-2.00;99.90;;;;;;5040751;28;20121;-76
2021/01/30 04:34:24;;;;;;;10.57;5.00;;;-2.00;99.90;;;;;;5046847;28;20432;-76
2021/01/30 04:36:50;;;;;;;12.75;5.32;;;-2.00;99.90;;;;;;5036179;28;20064;-77
2021/01/30 04:39:16;;;;;;;9.40;5.32;;;-2.00;99.90;;;;;;5015483;28;20069;-77
2021/01/30 04:41:45;;;;;;;10.23;5.10;;;-2.10;99.90;;;;;;5036843;28;20045;-77
2021/01/30 04:44:26;;;;;;;7.38;4.80;;;-2.10;99.90;;;;;;5048964;28;20073;-79
2021/01/30 04:47:30;;;;;;;10.68;5.03;;;-2.20;99.90;;;;;;5041511;28;20048;-78
2021/01/30 04:50:24;;;;;;;9.88;4.88;;;-2.20;99.90;;;;;;5032231;28;20103;-78
2021/01/30 04:53:00;;;;;;;10.43;5.13;;;-2.30;99.90;;;;;;5046021;28;20036;-78
2021/01/30 04:55:52;;;;;;;12.75;5.95;;;-2.30;99.90;;;;;;5047244;28;20045;-76
2021/01/30 04:58:31;;;;;;;9.80;5.03;;;-2.40;99.90;;;;;;5044554;28;20109;-76
2021/01/30 05:01:09;;;;;;;8.85;5.07;;;-2.40;99.90;;;;;;5041190;28;20033;-77
2021/01/30 05:04:02;;;;;;;11.25;4.75;;;-2.50;99.90;;;;;;5044538;28;20048;-77
2021/01/30 05:06:42;;;;;;;8.35;4.22;;;-2.50;99.90;;;;;;5036211;28;20037;-77
2021/01/30 05:09:19;;;;;;;12.55;5.93;;;-2.60;99.90;;;;;;5038566;28;20056;-77
2021/01/30 05:11:56;;;;;;;10.50;5.53;;;-2.60;99.90;;;;;;5061514;28;20037;-78
2021/01/30 05:14:28;;;;;;;12.45;5.22;;;-2.70;99.90;;;;;;5050132;28;20430;-77
2021/01/30 05:17:22;;;;;;;11.55;5.32;;;-2.30;99.90;;;;;;5052556;28;20045;-76
2021/01/30 05:19:54;;;;;;;12.55;6.00;;;-2.70;99.90;;;;;;5041364;28;20060;-77
2021/01/30 05:22:34;;;;;;;12.10;4.95;;;-2.80;99.90;;;;;;5039116;28;20064;-78
2021/01/30 05:25:03;;;;;;;10.55;4.97;;;-2.70;99.90;;;;;;5046126;28;20045;-77
2021/01/30 05:28:07;;;;;;;10.27;5.68;;;-2.80;99.90;;;;;;5051257;28;20083;-77
2021/01/30 05:31:08;;;;;;;10.27;5.63;;;-2.80;99.90;;;;;;5038397;28;20048;-77
2021/01/30 05:33:49;;;;;;;11.52;6.00;;;-2.80;99.90;;;;;;5052281;28;20040;-77
2021/01/30 05:36:29;;;;;;;10.05;5.18;;;-2.90;99.90;;;;;;5046796;28;20041;-77
2021/01/30 05:39:12;;;;;;;12.07;5.60;;;-2.90;99.90;;;;;;5040240;28;20413;-78
2021/01/30 05:42:19;;;;;;;11.88;5.82;;;-2.90;99.90;;;;;;5040173;28;20048;-77
2021/01/30 05:45:12;;;;;;;9.05;6.00;;;-2.90;99.90;;;;;;5048627;28;20120;-77
2021/01/30 05:47:39;;;;;;;18.60;6.30;;;-2.90;99.90;;;;;;5049761;28;20052;-78
2021/01/30 05:50:21;;;;;;;9.55;5.25;;;-2.90;99.90;;;;;;5043426;28;20034;-78
2021/01/30 05:52:47;;;;;;;11.65;5.95;;;-2.90;99.90;;;;;;5021916;28;20127;-77
2021/01/30 05:55:31;;;;;;;10.70;5.20;;;-3.00;99.90;;;;;;5050682;28;20170;-77
2021/01/30 05:58:01;;;;;;;12.15;6.25;;;-3.00;99.90;;;;;;5040316;28;20190;-77
2021/01/30 06:00:31;;;;;;;8.52;5.35;;;-3.00;99.90;;;;;;5046066;28;20037;-77
2021/01/30 06:03:01;;;;;;;11.95;5.85;;;-3.00;99.90;;;;;;5047239;28;20044;-78
2021/01/30 06:05:35;;;;;;;10.60;6.03;;;-3.00;99.90;;;;;;5039077;28;20379;-77
2021/01/30 06:08:15;;;;;;;9.68;5.57;;;-3.00;99.90;;;;;;5052609;28;20037;-78
2021/01/30 06:10:44;;;;;;;11.52;5.90;;;-3.10;99.90;;;;;;5051635;28;20041;-78
2021/01/30 06:13:19;;;;;;;13.18;6.05;;;-3.10;99.90;;;;;;5050608;28;20434;-78
2021/01/30 06:15:49;;;;;;;14.93;5.85;;;-3.10;99.90;;;;;;5054464;28;20037;-80
2021/01/30 06:18:27;;;;;;;12.95;5.75;;;-3.20;99.90;;;;;;5047020;28;20037;-78
2021/01/30 06:21:10;;;;;;;10.75;5.93;;;-3.20;99.90;;;;;;5050851;28;20045;-79
2021/01/30 06:23:38;;;;;;;11.38;6.00;;;-3.10;99.90;;;;;;5040515;28;20090;-77
2021/01/30 06:26:20;;;;;;;12.07;6.00;;;-3.10;99.90;;;;;;5033261;28;20041;-79
2021/01/30 06:29:08;;;;;;;19.50;8.77;;;-3.10;99.90;;;;;;5051668;28;20128;-78
2021/01/30 06:31:41;;;;;;;13.48;8.80;;;-3.10;99.90;;;;;;5037656;28;20123;-79
2021/01/30 06:34:25;;;;;;;16.15;8.90;;;-3.10;99.90;;;;;;5043533;28;20489;-79
2021/01/30 06:36:54;;;;;;;15.85;9.35;;;-3.10;99.90;;;;;;5039483;28;20112;-77
2021/01/30 06:39:34;;;;;;;13.57;8.32;;;-3.10;99.90;;;;;;5051121;28;20033;-79
2021/01/30 06:42:09;;;;;;;10.75;6.28;;;-3.20;99.90;;;;;;5045368;28;20037;-80
2021/01/30 06:44:36;;;;;;;12.88;6.88;;;-3.30;99.90;;;;;;5047232;28;20129;-78
2021/01/30 06:47:17;;;;;;;12.75;6.15;;;-3.30;99.90;;;;;;5038854;28;20517;-79
2021/01/30 06:49:48;;;;;;;12.93;7.13;;;-3.40;99.90;;;;;;5039647;28;20393;-79
2021/01/30 06:52:28;;;;;;;14.18;7.75;;;-3.20;99.90;;;;;;5049153;28;20123;-78
2021/01/30 06:55:03;;;;;;;12.65;7.32;;;-3.40;99.90;;;;;;5038691;28;20056;-79
2021/01/30 06:57:36;;;;;;;15.07;7.57;;;-3.40;99.90;;;;;;5047862;28;20400;-80
2021/01/30 07:00:22;;;;;;;15.10;7.32;;;-3.40;99.90;;;;;;5050188;28;20586;-79
2021/01/30 07:03:01;;;;;;;17.35;8.18;;;-3.40;99.90;;;;;;5037128;28;20090;-80
2021/01/30 07:05:50;;;;;;;16.33;8.70;;;-3.40;99.90;;;;;;5044537;28;20044;-77
2021/01/30 07:08:54;;;;;;;17.15;9.05;;;-3.40;99.90;;;;;;5044118;28;20037;-77
2021/01/30 07:11:54;;;;;;;15.80;10.50;;;-3.40;99.90;;;;;;5040828;28;20086;-77
2021/01/30 07:14:46;;;;;;;19.73;10.32;;;-3.50;99.90;;;;;;5031734;28;20060;-78
2021/01/30 07:17:33;;;;;;;18.80;10.60;;;-3.50;99.90;;;;;;5048969;28;20037;-76
2021/01/30 07:20:05;;;;;;;15.80;8.82;;;-3.50;99.90;;;;;;5047039;28;20044;-77
2021/01/30 07:22:53;;;;;;;13.32;8.65;;;-3.50;99.90;;;;;;5051623;28;20041;-78
2021/01/30 07:25:24;;;;;;;14.30;8.25;;;-3.50;99.90;;;;;;5037890;28;20095;-77
2021/01/30 07:27:58;;;;;;;14.95;8.55;;;-3.50;99.90;;;;;;5031165;28;20345;-76
2021/01/30 07:30:46;;;;;;;14.70;8.35;;;-3.50;99.90;;;;;;5055991;28;20087;-75
2021/01/30 07:34:05;;;;;;;16.25;8.75;;;-3.50;99.90;;;;;;5024691;28;20431;-76
2021/01/30 07:36:40;;;;;;;13.93;8.20;;;-3.50;99.90;;;;;;5004923;28;20049;-77
2021/01/30 07:39:30;;;;;;;16.63;9.50;;;-3.60;99.90;;;;;;5050863;28;20040;-77
2021/01/30 07:42:01;;;;;;;18.05;9.05;;;-3.60;99.90;;;;;;5047054;28;20080;-76
2021/01/30 07:44:41;;;;;;;14.52;8.38;;;-3.60;99.90;;;;;;5039306;28;20067;-75
2021/01/30 07:47:15;;;;;;;14.98;8.13;;;-3.60;99.90;;;;;;5048867;28;20039;-77
2021/01/30 07:49:48;;;;;;;16.30;7.75;;;-3.60;99.90;;;;;;5043097;28;20071;-77
2021/01/30 07:52:21;;;;;;;17.90;8.10;;;-3.60;99.90;;;;;;5034776;28;20079;-77
2021/01/30 07:54:52;;;;;;;13.95;7.07;;;-3.50;99.90;;;;;;5048472;28;20485;-79
2021/01/30 07:57:39;;;;;;;16.63;7.88;;;-3.60;99.90;;;;;;5046785;28;20041;-78
2021/01/30 08:00:12;;;;;;;12.90;7.50;;;-3.60;99.90;;;;;;5033087;28;20256;-78
2021/01/30 08:03:03;;;;;;;18.42;8.25;;;-3.50;99.90;;;;;;5045002;28;20445;-76
2021/01/30 08:05:35;;;;;;;17.90;8.52;;;-3.50;99.90;;;;;;5040926;28;20474;-78
2021/01/30 08:08:46;;;;;;;20.27;8.07;;;-3.40;99.90;;;;;;5047148;28;20049;-77
2021/01/30 08:11:36;;;;;;;18.05;8.18;;;-3.40;99.90;;;;;;5055134;28;20048;-77
2021/01/30 08:14:14;;;;;;;14.63;7.75;;;-3.40;99.90;;;;;;5033761;28;20397;-79
2021/01/30 08:17:01;;;;;;;18.58;8.48;;;-3.30;99.90;;;;;;5047306;28;20063;-78
2021/01/30 08:19:55;;;;;;;15.63;7.22;;;-3.30;99.90;;;;;;5048036;28;20040;-78
2021/01/30 08:22:56;;;;;;;16.40;7.90;;;-3.20;99.90;;;;;;5045744;28;20100;-80
2021/01/30 08:25:59;;;;;;;17.77;8.30;;;-3.10;99.90;;;;;;5025058;28;20084;-78
2021/01/30 08:28:57;;;;;;;17.48;8.23;;;-3.00;99.90;;;;;;5042923;28;20045;-77
2021/01/30 08:31:43;;;;;;;15.13;7.75;;;-2.90;99.90;;;;;;5048635;28;20068;-79
2021/01/30 08:34:25;;;;;;;15.68;8.40;;;-2.80;99.90;;;;;;5043535;28;20090;-78
2021/01/30 08:36:57;;;;;;;16.42;8.10;;;-2.80;99.90;;;;;;5036839;28;20381;-77
2021/01/30 08:39:36;;;;;;;15.65;9.07;;;-2.70;99.90;;;;;;5049121;28;20045;-78
2021/01/30 08:42:17;;;;;;;15.55;8.68;;;-2.60;99.90;;;;;;5047515;28;20445;-78
2021/01/30 08:44:57;;;;;;;14.50;7.70;;;-2.50;99.90;;;;;;5033687;28;20044;-79
2021/01/30 08:47:54;;;;;;;16.25;8.48;;;-2.50;99.90;;;;;;5037682;28;20044;-77
2021/01/30 08:50:26;;;;;;;17.53;9.40;;;-2.40;99.90;;;;;;5040023;28;20048;-78
2021/01/30 08:52:53;;;;;;;19.33;9.07;;;-2.30;99.90;;;;;;5042430;28;20283;-78
2021/01/30 08:55:40;;;;;;;14.88;8.07;;;-2.20;99.90;;;;;;5050253;28;20037;-83
2021/01/30 08:58:06;;;;;;;17.58;8.15;;;-2.20;99.90;;;;;;5044227;28;20120;-77
2021/01/30 09:00:53;;;;;;;14.55;7.97;;;-2.10;99.90;;;;;;5047300;28;20489;-79
2021/01/30 09:03:37;;;;;;;14.35;7.30;;;-2.00;99.90;;;;;;5056974;28;20042;-78
2021/01/30 09:06:04;;;;;;;14.57;7.97;;;-2.00;99.90;;;;;;5044030;28;20056;-78
2021/01/30 09:08:59;;;;;;;16.58;8.65;;;-1.90;99.90;;;;;;5047489;28;20044;-78
2021/01/30 09:11:48;;;;;;;14.35;8.15;;;-1.80;99.90;;;;;;5043562;28;20115;-77
2021/01/30 09:14:16;;;;;;;15.13;7.40;;;-1.70;99.90;;;;;;5048951;28;20131;-77
2021/01/30 09:16:57;;;;;;;12.55;7.53;;;-1.70;99.90;;;;;;5044010;28;20074;-77
2021/01/30 09:20:02;;;;;;;14.68;7.72;;;-1.60;99.90;;;;;;5032592;28;20041;-77
2021/01/30 09:23:01;;;;;;;14.52;8.88;;;-1.60;99.90;;;;;;5045984;28;20129;-76
2021/01/30 09:25:37;;;;;;;14.68;7.28;;;-1.60;99.90;;;;;;5045645;28;20061;-76
2021/01/30 09:28:13;;;;;;;13.87;7.17;;;-1.50;99.90;;;;;;5038543;28;20033;-76
2021/01/30 09:30:45;;;;;;;13.70;6.68;;;-1.40;99.90;;;;;;5044333;28;20045;-76
2021/01/30 09:33:21;;;;;;;14.15;7.57;;;-1.40;99.90;;;;;;5039959;28;20044;-76
2021/01/30 09:35:48;;;;;;;11.98;6.85;;;-1.30;99.90;;;;;;5047165;28;20049;-78
2021/01/30 09:38:23;;;;;;;13.38;7.45;;;-1.30;99.90;;;;;;5040189;28;20052;-78
2021/01/30 09:40:49;;;;;;;13.00;6.90;;;-1.30;99.90;;;;;;5046777;28;20117;-76
2021/01/30 09:43:21;;;;;;;15.55;7.70;;;-1.30;99.90;;;;;;5044237;28;20045;-76
2021/01/30 09:45:52;;;;;;;15.90;8.15;;;-1.20;99.90;;;;;;5040064;28;20140;-77
2021/01/30 09:48:19;;;;;;;15.77;8.80;;;-1.20;99.90;;;;;;5046126;28;20276;-77
2021/01/30 09:50:51;;;;;;;13.45;7.03;;;-1.20;99.90;;;;;;5040605;28;20041;-78
2021/01/30 09:53:59;;;;;;;12.90;7.43;;;-1.10;99.90;;;;;;5045926;28;20045;-76
2021/01/30 09:56:25;;;;;;;12.77;7.50;;;-1.10;99.90;;;;;;5050174;28;20072;-76
2021/01/30 09:58:55;;;;;;;16.25;7.90;;;-1.10;99.90;;;;;;5051034;28;20049;-77
2021/01/30 10:01:31;;;;;;;12.98;7.07;;;-1.10;99.90;;;;;;5041623;28;20133;-77
2021/01/30 10:03:57;;;;;;;14.43;7.82;;;-1.00;99.90;;;;;;5066925;28;20037;-77
2021/01/30 10:06:31;;;;;;;14.93;7.50;;;-1.00;99.90;;;;;;5040906;28;20033;-77
2021/01/30 10:09:14;;;;;;;12.93;7.88;;;-0.90;99.90;;;;;;5049829;28;20051;-77
2021/01/30 10:11:45;;;;;;;14.90;6.90;;;-0.90;99.90;;;;;;5059323;28;20041;-77
2021/01/30 10:14:15;;;;;;;13.20;6.85;;;-0.80;99.90;;;;;;5044826;28;20058;-76
2021/01/30 10:16:44;;;;;;;12.57;6.60;;;-0.80;99.90;;;;;;5051707;28;20466;-75
2021/01/30 10:19:25;;;;;;;9.63;5.65;;;-0.70;99.90;;;;;;5043061;28;20045;-77
2021/01/30 10:21:53;;;;;;;13.13;7.40;;;-0.70;99.90;;;;;;5040459;28;20196;-77
2021/01/30 10:24:26;;;;;;;12.98;6.43;;;-0.70;99.90;;;;;;5052678;28;20037;-76
2021/01/30 10:26:55;;;;;;;11.88;7.40;;;-0.70;99.90;;;;;;5051315;28;20037;-77
2021/01/30 10:29:25;;;;;;;13.32;6.68;;;-0.60;99.90;;;;;;5041764;28;20385;-77
2021/01/30 10:31:54;;;;;;;13.05;6.47;;;-0.60;99.90;;;;;;5037524;28;20033;-77
2021/01/30 10:34:41;;;;;;;10.80;6.28;;;-0.50;99.90;;;;;;5046018;28;20037;-76
2021/01/30 10:37:15;;;;;;;10.63;5.97;;;-0.40;99.90;;;;;;5042272;28;20507;-76
2021/01/30 10:39:50;;;;;;;9.77;6.03;;;-0.30;99.90;;;;;;5049830;28;20448;-77
2021/01/30 10:42:22;;;;;;;9.23;6.30;;;-0.20;99.90;;;;;;5048402;28;20041;-77
2021/01/30 10:44:57;;;;;;;10.65;6.20;;;-0.10;99.90;;;;;;5049887;28;20444;-77
2021/01/30 10:47:24;;;;;;;9.95;6.20;;;-0.10;99.90;;;;;;5041646;28;20035;-76
2021/01/30 10:50:00;;;;;;;9.75;5.88;;;0.10;99.90;;;;;;5045428;28;20033;-76
2021/01/30 10:52:27;;;;;;;11.82;6.68;;;0.20;99.90;;;;;;5051213;28;20037;-76
2021/01/30 10:54:53;;;;;;;11.00;6.47;;;0.30;99.90;;;;;;5045122;28;20037;-77
2021/01/30 10:57:18;;;;;;;;;;;0.40;99.90;;;;;;5039978;28;20046;-75
2021/01/30 10:59:59;;;;;;;9.25;6.10;;;0.30;99.90;;;;;;5038681;28;19943;-76
2021/01/30 11:02:44;;;;;;;9.85;5.60;;;0.40;99.90;;;;;;5052854;28;20151;-77
2021/01/30 11:05:19;;;;;;;8.77;5.22;;;0.50;99.90;;;;;;5040632;28;20531;-80
2021/01/30 11:08:00;;;;;;;10.95;6.18;;;0.30;99.90;;;;;;5038075;28;20116;-76
2021/01/30 11:10:29;;;;;;;8.13;5.18;;;0.20;99.90;;;;;;5039987;28;20057;-77
2021/01/30 11:13:11;;;;;;;8.90;5.32;;;0.20;99.90;;;;;;5049988;28;20053;-77
2021/01/30 11:15:42;;;;;;;9.73;5.60;;;0.20;99.90;;;;;;5050416;28;20111;-78
2021/01/30 11:18:26;;;;;;;9.93;6.32;;;0.10;99.90;;;;;;5052436;28;20036;-78
2021/01/30 11:20:52;;;;;;;9.48;5.65;;;0.10;99.90;;;;;;5039199;28;20303;-77
2021/01/30 11:23:37;;;;;;;10.13;5.75;;;0.10;99.90;;;;;;5042223;28;20037;-78
2021/01/30 11:26:24;;;;;;;8.68;5.30;;;0.20;99.90;;;;;;5046966;28;20048;-78
2021/01/30 11:28:51;;;;;;;10.20;5.75;;;0.20;99.90;;;;;;5045814;28;20033;-75
2021/01/30 11:31:17;;;;;;;;;;;0.10;99.90;;;;;;5046792;28;20407;-77
2021/01/30 11:33:45;;;;;;;10.27;5.80;;;0.10;99.90;;;;;;5046090;28;20288;-77
2021/01/30 11:36:16;;;;;;;7.82;5.07;;;0.00;99.90;;;;;;5049729;28;20036;-77
2021/01/30 11:38:44;;;;;;;9.02;5.68;;;0.00;99.90;;;;;;5041683;28;20115;-78
2021/01/30 11:41:10;;;;;;;10.52;5.43;;;0.00;99.90;;;;;;5050037;28;20466;-77
2021/01/30 11:43:36;;;;;;;8.82;5.70;;;0.00;99.90;;;;;;5043415;28;20393;-80
2021/01/30 11:46:02;;;;;;;7.53;4.75;;;0.00;99.90;;;;;;5043502;28;20124;-78
2021/01/30 11:48:27;;;;;;;6.47;4.80;;;0.00;99.90;;;;;;5051165;28;20033;-78
2021/01/30 11:50:54;;;;;;;7.18;4.30;;;0.00;99.90;;;;;;5048939;28;20514;-78
2021/01/30 11:53:24;;;;;;;8.55;5.00;;;0.00;99.90;;;;;;5065725;28;20464;-77
2021/01/30 11:55:50;;;;;;;9.82;4.97;;;0.00;99.90;;;;;;5050379;28;20069;-79
2021/01/30 11:58:17;;;;;;;8.48;5.43;;;0.00;99.90;;;;;;5042798;28;20068;-78
2021/01/30 12:00:44;;;;;;;8.70;4.68;;;0.20;99.90;;;;;;5049443;28;20047;-80
2021/01/30 12:03:23;;;;;;;;;;;0.10;99.90;;;;;;5050519;28;20071;-80
2021/01/30 12:05:49;;;;;;;8.20;5.07;;;0.30;99.90;;;;;;5050210;28;19926;-79
2021/01/30 12:08:16;;;;;;;8.43;5.15;;;0.40;99.90;;;;;;5049916;28;20041;-79
2021/01/30 12:10:41;;;;;;;;;;;0.50;99.90;;;;;;5049207;28;20437;-78
2021/01/30 12:13:07;;;;;;;9.85;5.32;;;0.60;99.90;;;;;;5042831;28;20052;-77
2021/01/30 12:15:33;;;;;;;8.25;4.85;;;0.80;99.90;;;;;;5055214;28;20047;-78
2021/01/30 12:17:59;;;;;;;8.13;5.30;;;1.00;99.90;;;;;;5046153;28;20033;-77
2021/01/30 12:20:27;;;;;;;9.00;4.85;;;1.10;99.90;;;;;;5049400;28;20043;-80
2021/01/30 12:22:57;;;;;;;7.05;4.45;;;1.30;99.90;;;;;;5049331;28;20041;-79
2021/01/30 12:25:24;;;;;;;9.20;5.60;;;1.30;99.90;;;;;;5048598;28;20044;-78
2021/01/30 12:27:53;;;;;;;7.45;5.43;;;1.30;99.90;;;;;;5050276;28;20475;-79
2021/01/30 12:30:21;;;;;;;7.10;4.95;;;1.50;99.90;;;;;;5049995;28;20052;-80
2021/01/30 12:32:49;;;;;;;8.65;4.68;;;1.20;99.90;;;;;;5050308;28;20044;-80
2021/01/30 12:35:17;;;;;;;8.57;5.03;;;1.20;99.90;;;;;;5049288;28;20041;-77
2021/01/30 12:37:44;;;;;;;9.38;5.22;;;1.20;99.90;;;;;;5046091;28;20064;-80
2021/01/30 12:40:10;;;;;;;8.15;5.40;;;1.20;99.90;;;;;;5065107;28;20040;-79
2021/01/30 12:42:37;;;;;;;8.00;5.35;;;1.20;99.90;;;;;;5050102;28;20037;-79
2021/01/30 12:45:03;;;;;;;;;;;1.00;99.90;;;;;;5049777;28;20080;-80
2021/01/30 12:47:31;;;;;;;10.57;6.40;;;1.10;99.90;;;;;;5041871;28;20378;-80
2021/01/30 12:49:57;;;;;;;11.77;5.95;;;0.90;99.90;;;;;;5048657;28;20052;-79
2021/01/30 12:52:23;;;;;;;;;;;0.90;99.90;;;;;;5048862;28;20060;-78
2021/01/30 12:54:50;;;;;;;12.20;6.03;;;1.00;99.90;;;;;;5050453;28;19924;-77
2021/01/30 12:57:16;;;;;;;7.45;4.88;;;1.10;99.90;;;;;;5044570;28;20097;-78
2021/01/30 12:59:42;;;;;;;10.07;6.35;;;1.20;99.90;;;;;;5065308;28;20498;-78
2021/01/30 13:02:10;;;;;;;7.22;4.97;;;1.10;99.90;;;;;;5049017;28;20037;-78
2021/01/30 13:04:36;;;;;;;7.70;5.45;;;1.00;99.90;;;;;;5047976;28;20064;-79
2021/01/30 13:07:04;;;;;;;11.25;6.05;;;0.90;99.90;;;;;;5052784;28;20509;-79
2021/01/30 13:09:30;;;;;;;8.98;5.32;;;0.80;99.90;;;;;;5043829;28;20071;-78
2021/01/30 13:11:56;;;;;;;7.45;5.50;;;0.60;99.90;;;;;;5047965;28;20424;-78
2021/01/30 13:14:22;;;;;;;;;;;0.50;99.90;;;;;;5058316;28;20145;-78
2021/01/30 13:16:48;;;;;;;9.57;5.97;;;0.40;99.90;;;;;;5039487;28;20015;-79
2021/01/30 13:19:15;;;;;;;8.95;6.43;;;0.30;99.90;;;;;;5047899;28;20090;-80
2021/01/30 13:21:50;;;;;;;10.85;5.85;;;0.30;99.90;;;;;;5045438;28;20044;-81
2021/01/30 13:24:16;;;;;;;8.32;5.65;;;0.20;99.90;;;;;;5032179;28;20047;-78